createdAt,value
2019-02-02T00:01:42.993Z,56.37
2019-02-02T00:04:10.907Z,49.13
2019-02-02T00:06:38.825Z,56.33
2019-02-02T00:09:08.038Z,55.50
2019-02-02T00:11:36.130Z,55.53
2019-02-02T00:14:05.114Z,54.17
2019-02-02T00:16:33.229Z,51.03
2019-02-02T00:19:01.292Z,57.78
2019-02-02T00:21:29.255Z,55.03
2019-02-02T00:23:57.304Z,50.10
2019-02-02T00:26:25.266Z,55.15
2019-02-02T00:28:53.341Z,55.23
2019-02-02T00:31:21.247Z,58.95
2019-02-02T00:33:49.827Z,51.98
2019-02-02T00:36:17.736Z,50.97
2019-02-02T00:38:46.657Z,53.60
2019-02-02T00:41:14.575Z,61.92
2019-02-02T00:43:42.449Z,68.10
2019-02-02T00:46:12.426Z,57.25
2019-02-02T00:48:40.329Z,66.72
2019-02-02T00:51:08.231Z,55.90
2019-02-02T00:53:36.958Z,56.67
2019-02-02T00:56:05.205Z,78.80
2019-02-02T00:58:33.129Z,84.85
2019-02-02T01:01:01.103Z,93.50
2019-02-02T01:03:29.276Z,90.83
2019-02-02T01:05:57.270Z,79.10
2019-02-02T01:08:25.333Z,67.63
2019-02-02T01:10:53.384Z,48.02
2019-02-02T01:13:21.602Z,50.52
2019-02-02T01:15:49.527Z,45.57
2019-02-02T01:18:17.542Z,48.93
2019-02-02T01:20:45.526Z,43.37
2019-02-02T01:23:13.607Z,47.13
2019-02-02T01:25:42.055Z,45.03
2019-02-02T01:28:10.180Z,44.53
2019-02-02T01:30:38.181Z,47.03
2019-02-02T01:33:06.258Z,41.00
2019-02-02T01:35:34.142Z,45.08
2019-02-02T01:38:02.337Z,40.57
2019-02-02T01:40:30.288Z,40.80
2019-02-02T01:42:58.399Z,36.50
2019-02-02T01:45:26.638Z,40.95
2019-02-02T01:47:55.557Z,41.63
2019-02-02T01:50:24.982Z,42.60
2019-02-02T01:52:53.103Z,40.57
2019-02-02T01:55:21.312Z,42.70
2019-02-02T01:57:49.364Z,43.97
2019-02-02T02:00:22.953Z,41.63
2019-02-02T02:02:53.443Z,42.17
2019-02-02T02:05:21.502Z,39.50
2019-02-02T02:07:49.982Z,38.80
2019-02-02T02:10:18.469Z,38.30
2019-02-02T02:12:46.417Z,45.33
2019-02-02T02:15:15.432Z,36.73
2019-02-02T02:17:44.345Z,37.70
2019-02-02T02:20:13.139Z,36.85
2019-02-02T02:22:41.615Z,43.02
2019-02-02T02:25:12.109Z,38.25
2019-02-02T02:27:40.177Z,42.47
2019-02-02T02:30:10.809Z,43.67
2019-02-02T02:32:38.729Z,47.07
2019-02-02T02:35:06.911Z,46.00
2019-02-02T02:37:34.915Z,49.10
2019-02-02T02:40:03.798Z,48.23
2019-02-02T02:42:31.772Z,45.43
2019-02-02T02:44:59.620Z,43.60
2019-02-02T02:47:27.548Z,50.75
2019-02-02T02:49:55.516Z,49.00
2019-02-02T02:52:23.549Z,44.13
2019-02-02T02:54:51.506Z,47.75
2019-02-02T02:57:19.302Z,51.50
2019-02-02T02:59:47.188Z,52.77
2019-02-02T03:02:15.209Z,52.07
2019-02-02T03:04:43.106Z,48.70
2019-02-02T03:07:11.134Z,45.40
2019-02-02T03:09:39.016Z,42.87
2019-02-02T03:12:06.977Z,48.42
2019-02-02T03:14:34.946Z,49.90
2019-02-02T03:17:03.555Z,44.73
2019-02-02T03:19:31.900Z,45.70
2019-02-02T03:21:59.863Z,44.00
2019-02-02T03:24:27.774Z,41.33
2019-02-02T03:26:55.619Z,40.40
2019-02-02T03:29:23.540Z,40.60
2019-02-02T03:31:52.175Z,38.67
2019-02-02T03:34:20.196Z,38.40
2019-02-02T03:36:47.994Z,32.15
2019-02-02T03:39:15.885Z,30.85
2019-02-02T03:41:43.832Z,31.90
2019-02-02T03:44:11.737Z,33.13
2019-02-02T03:46:39.674Z,30.70
2019-02-02T03:49:07.598Z,32.17
2019-02-02T03:51:35.627Z,30.70
2019-02-02T03:54:08.924Z,26.60
2019-02-02T03:56:33.613Z,28.73
2019-02-02T03:59:06.562Z,26.52
2019-02-02T04:01:31.488Z,26.35
2019-02-02T04:03:59.587Z,26.15
2019-02-02T04:06:27.483Z,29.00
2019-02-02T04:08:55.460Z,28.20
2019-02-02T04:11:23.505Z,21.62
2019-02-02T04:13:51.372Z,26.73
2019-02-02T04:16:19.340Z,24.77
2019-02-02T04:18:47.132Z,21.07
2019-02-02T04:21:15.186Z,26.03
2019-02-02T04:23:44.006Z,21.67
2019-02-02T04:26:11.951Z,24.20
2019-02-02T04:28:39.900Z,21.67
2019-02-02T04:31:07.803Z,28.40
2019-02-02T04:33:35.572Z,25.27
2019-02-02T04:36:04.016Z,24.70
2019-02-02T04:38:31.891Z,27.98
2019-02-02T04:40:59.982Z,31.90
2019-02-02T04:43:27.745Z,27.20
2019-02-02T04:45:55.516Z,29.77
2019-02-02T04:48:23.656Z,32.97
2019-02-02T04:50:51.517Z,29.63
2019-02-02T04:53:20.660Z,28.27
2019-02-02T04:55:48.649Z,28.12
2019-02-02T04:58:16.689Z,29.20
2019-02-02T05:00:45.166Z,32.83
2019-02-02T05:03:12.918Z,30.77
2019-02-02T05:05:40.896Z,32.73
2019-02-02T05:08:09.501Z,41.40
2019-02-02T05:10:37.589Z,34.90
2019-02-02T05:13:05.589Z,36.93
2019-02-02T05:15:33.379Z,31.50
2019-02-02T05:18:01.363Z,34.17
2019-02-02T05:20:29.404Z,34.07
2019-02-02T05:22:57.468Z,36.20
2019-02-02T05:25:25.468Z,34.60
2019-02-02T05:27:53.504Z,40.30
2019-02-02T05:30:26.634Z,51.18
2019-02-02T05:32:55.202Z,50.20
2019-02-02T05:35:23.215Z,44.73
2019-02-02T05:37:51.332Z,41.47
2019-02-02T05:40:22.278Z,47.30
2019-02-02T05:42:50.367Z,39.80
2019-02-02T05:45:19.569Z,37.60
2019-02-02T05:47:48.072Z,39.93
2019-02-02T05:50:17.914Z,39.07
2019-02-02T05:52:46.043Z,31.52
2019-02-02T05:55:15.294Z,33.20
2019-02-02T05:57:43.460Z,36.25
2019-02-02T06:00:16.241Z,32.35
2019-02-02T06:02:44.354Z,30.13
2019-02-02T06:05:12.296Z,36.73
2019-02-02T06:07:40.600Z,40.30
2019-02-02T06:10:10.723Z,35.33
2019-02-02T06:12:38.618Z,39.48
2019-02-02T06:15:06.942Z,52.73
2019-02-02T06:17:35.113Z,64.10
2019-02-02T06:20:04.489Z,51.90
2019-02-02T06:22:32.603Z,34.37
2019-02-02T06:25:00.593Z,30.63
2019-02-02T06:27:28.524Z,29.63
2019-02-02T06:30:04.016Z,27.00
2019-02-02T06:32:26.120Z,27.43
2019-02-02T06:34:54.065Z,67.73
2019-02-02T06:37:22.666Z,41.27
2019-02-02T06:39:50.630Z,39.90
2019-02-02T06:42:18.629Z,32.20
2019-02-02T06:44:46.644Z,30.37
2019-02-02T06:47:14.625Z,30.53
2019-02-02T06:49:42.538Z,31.20
2019-02-02T06:52:10.515Z,32.67
2019-02-02T06:54:38.494Z,33.00
2019-02-02T06:57:06.478Z,29.67
2019-02-02T06:59:34.447Z,30.60
2019-02-02T07:02:02.467Z,32.53
2019-02-02T07:04:30.576Z,30.67
2019-02-02T07:06:58.732Z,29.43
2019-02-02T07:09:26.768Z,30.57
2019-02-02T07:11:54.814Z,37.40
2019-02-02T07:14:22.732Z,29.35
2019-02-02T07:16:50.714Z,30.37
2019-02-02T07:19:18.588Z,28.00
2019-02-02T07:21:47.715Z,30.63
2019-02-02T07:24:15.700Z,27.27
2019-02-02T07:26:43.716Z,36.13
2019-02-02T07:29:11.684Z,37.37
2019-02-02T07:31:39.701Z,35.97
2019-02-02T07:34:07.757Z,40.57
2019-02-02T07:36:36.071Z,40.83
2019-02-02T07:39:06.653Z,39.83
2019-02-02T07:41:34.617Z,39.20
2019-02-02T07:44:03.348Z,47.45
2019-02-02T07:46:31.599Z,240.60
2019-02-02T07:48:59.951Z,246.77
2019-02-02T07:51:28.115Z,114.37
2019-02-02T07:53:56.588Z,121.30
2019-02-02T07:56:24.561Z,102.20
2019-02-02T07:58:53.281Z,167.30
2019-02-02T08:01:21.388Z,160.50
2019-02-02T08:03:49.337Z,124.33
2019-02-02T08:06:17.509Z,109.70
2019-02-02T08:08:45.460Z,103.43
2019-02-02T08:11:13.484Z,108.45
2019-02-02T08:13:41.459Z,103.83
2019-02-02T08:16:11.547Z,63.80
2019-02-02T08:18:39.456Z,66.97
2019-02-02T08:21:09.479Z,63.90
2019-02-02T08:23:37.446Z,60.67
2019-02-02T08:26:05.507Z,59.33
2019-02-02T08:28:33.583Z,58.63
2019-02-02T08:31:01.628Z,56.03
2019-02-02T08:33:29.498Z,59.83
2019-02-02T08:35:57.505Z,110.33
2019-02-02T08:38:25.318Z,110.47
2019-02-02T08:40:53.326Z,62.13
2019-02-02T08:43:21.408Z,58.63
2019-02-02T08:45:49.414Z,39.57
2019-02-02T08:48:17.432Z,53.40
2019-02-02T08:50:45.352Z,63.27
2019-02-02T08:53:13.243Z,58.37
2019-02-02T08:55:41.259Z,55.20
2019-02-02T08:58:09.172Z,65.73
2019-02-02T09:00:37.257Z,73.07
2019-02-02T09:03:05.557Z,46.63
2019-02-02T09:05:34.381Z,39.70
2019-02-02T09:08:02.242Z,32.67
2019-02-02T09:10:30.333Z,57.80
2019-02-02T09:12:58.419Z,63.67
2019-02-02T09:15:27.469Z,79.07
2019-02-02T09:17:55.529Z,61.93
2019-02-02T09:20:23.549Z,53.33
2019-02-02T09:23:02.657Z,48.93
2019-02-02T09:25:21.581Z,39.80
2019-02-02T09:27:50.645Z,38.77
2019-02-02T09:30:23.625Z,28.67
2019-02-02T09:32:51.521Z,37.30
2019-02-02T09:35:19.839Z,30.03
2019-02-02T09:37:47.915Z,29.47
2019-02-02T09:40:16.920Z,25.17
2019-02-02T09:42:44.891Z,25.17
2019-02-02T09:45:14.938Z,23.07
2019-02-02T09:47:42.869Z,29.57
2019-02-02T09:50:12.959Z,25.33
2019-02-02T09:52:40.953Z,25.53
2019-02-02T09:55:11.477Z,25.37
2019-02-02T09:57:39.474Z,30.77
2019-02-02T10:00:11.817Z,27.63
2019-02-02T10:02:39.724Z,25.07
2019-02-02T10:05:07.835Z,38.97
2019-02-02T10:07:35.769Z,33.27
2019-02-02T10:10:05.488Z,21.33
2019-02-02T10:12:33.429Z,32.80
2019-02-02T10:15:01.760Z,22.93
2019-02-02T10:17:29.647Z,20.53
2019-02-02T10:19:57.462Z,20.27
2019-02-02T10:22:25.430Z,22.43
2019-02-02T10:24:53.361Z,22.40
2019-02-02T10:27:21.271Z,23.20
2019-02-02T10:29:49.146Z,20.53
2019-02-02T10:32:17.656Z,20.17
2019-02-02T10:34:45.743Z,17.00
2019-02-02T10:37:14.006Z,14.70
2019-02-02T10:39:41.837Z,14.73
2019-02-02T10:42:11.145Z,15.97
2019-02-02T10:44:39.101Z,14.50
2019-02-02T10:47:07.244Z,17.73
2019-02-02T10:49:35.049Z,16.93
2019-02-02T10:52:17.337Z,15.80
2019-02-02T10:54:45.338Z,12.90
2019-02-02T10:57:13.233Z,14.50
2019-02-02T10:59:41.829Z,15.37
2019-02-02T11:02:09.675Z,14.00
2019-02-02T11:04:37.806Z,13.80
2019-02-02T11:07:05.962Z,10.47
2019-02-02T11:09:34.692Z,14.87
2019-02-02T11:12:02.788Z,13.20
2019-02-02T11:14:31.134Z,15.33
2019-02-02T11:16:59.838Z,15.83
2019-02-02T11:19:27.719Z,16.00
2019-02-02T11:21:55.814Z,20.63
2019-02-02T11:24:23.790Z,26.57
2019-02-02T11:26:51.739Z,23.23
2019-02-02T11:29:20.289Z,29.63
2019-02-02T11:31:48.285Z,27.77
2019-02-02T11:34:16.215Z,16.90
2019-02-02T11:36:44.293Z,19.10
2019-02-02T11:39:12.079Z,18.63
2019-02-02T11:41:40.132Z,20.20
2019-02-02T11:44:08.088Z,18.00
2019-02-02T11:46:36.083Z,18.13
2019-02-02T11:49:04.123Z,18.77
2019-02-02T11:51:32.207Z,15.93
2019-02-02T11:54:00.000Z,15.20
2019-02-02T11:56:27.909Z,16.73
2019-02-02T11:58:55.872Z,16.80
2019-02-02T12:01:23.849Z,17.60
2019-02-02T12:03:51.739Z,17.53
2019-02-02T12:06:20.331Z,18.83
2019-02-02T12:08:49.324Z,16.70
2019-02-02T12:11:17.702Z,15.47
2019-02-02T12:13:45.534Z,39.93
2019-02-02T12:16:13.421Z,44.10
2019-02-02T12:18:41.327Z,43.40
2019-02-02T12:21:09.215Z,56.80
2019-02-02T12:23:37.126Z,23.27
2019-02-02T12:26:05.174Z,33.80
2019-02-02T12:28:33.038Z,84.33
2019-02-02T12:31:01.685Z,64.30
2019-02-02T12:33:29.669Z,79.47
2019-02-02T12:35:57.566Z,155.57
2019-02-02T12:38:25.447Z,61.90
2019-02-02T12:40:53.283Z,228.83
2019-02-02T12:43:21.290Z,53.37
2019-02-02T12:45:52.112Z,56.73
2019-02-02T12:48:20.249Z,68.73
2019-02-02T12:50:48.306Z,50.00
2019-02-02T12:53:16.482Z,18.63
2019-02-02T12:55:44.393Z,22.00
2019-02-02T12:58:12.870Z,41.37
2019-02-02T13:00:44.032Z,14.53
2019-02-02T13:03:10.959Z,14.43
2019-02-02T13:05:39.343Z,14.03
2019-02-02T13:08:07.739Z,12.63
2019-02-02T13:10:35.948Z,13.47
2019-02-02T13:13:04.146Z,16.53
2019-02-02T13:15:32.188Z,21.10
2019-02-02T13:18:00.065Z,17.10
2019-02-02T13:20:28.241Z,19.10
2019-02-02T13:22:56.216Z,19.57
2019-02-02T13:25:24.856Z,17.40
2019-02-02T13:27:52.894Z,20.17
2019-02-02T13:30:23.732Z,18.53
2019-02-02T13:32:51.858Z,20.13
2019-02-02T13:35:19.946Z,16.03
2019-02-02T13:37:48.059Z,20.97
2019-02-02T13:40:17.510Z,85.60
2019-02-02T13:42:45.445Z,194.77
2019-02-02T13:45:14.302Z,186.80
2019-02-02T13:47:42.314Z,58.87
2019-02-02T13:50:12.524Z,48.37
2019-02-02T13:52:40.536Z,22.90
2019-02-02T13:55:08.665Z,14.90
2019-02-02T13:57:36.717Z,16.67
2019-02-02T14:00:06.913Z,11.37
2019-02-02T14:02:34.866Z,14.93
2019-02-02T14:05:03.521Z,11.47
2019-02-02T14:07:31.525Z,11.70
2019-02-02T14:09:59.332Z,76.30
2019-02-02T14:12:27.422Z,14.17
2019-02-02T14:14:55.223Z,13.03
2019-02-02T14:17:23.229Z,10.80
2019-02-02T14:19:51.192Z,14.30
2019-02-02T14:22:20.238Z,12.50
2019-02-02T14:24:48.770Z,21.90
2019-02-02T14:27:16.628Z,17.43
2019-02-02T14:29:44.618Z,14.77
2019-02-02T14:32:13.415Z,11.43
2019-02-02T14:34:41.401Z,11.07
2019-02-02T14:37:09.365Z,9.17
2019-02-02T14:39:37.260Z,10.57
2019-02-02T14:42:05.307Z,8.03
2019-02-02T14:44:34.026Z,9.77
2019-02-02T14:47:02.053Z,9.07
2019-02-02T14:49:30.362Z,10.93
2019-02-02T14:51:58.298Z,11.57
2019-02-02T14:54:26.126Z,8.07
2019-02-02T14:56:54.807Z,5.80
2019-02-02T14:59:22.565Z,11.67
2019-02-02T15:01:53.204Z,6.60
2019-02-02T15:04:21.111Z,7.50
2019-02-02T15:06:48.934Z,8.27
2019-02-02T15:09:16.913Z,6.30
2019-02-02T15:11:44.780Z,7.23
2019-02-02T15:14:12.677Z,8.40
2019-02-02T15:16:41.954Z,7.13
2019-02-02T15:19:09.869Z,10.50
2019-02-02T15:21:37.860Z,9.17
2019-02-02T15:24:06.060Z,8.57
2019-02-02T15:26:33.955Z,9.07
2019-02-02T15:29:01.996Z,7.93
2019-02-02T15:31:29.935Z,8.50
2019-02-02T15:33:57.941Z,9.37
2019-02-02T15:36:25.862Z,9.90
2019-02-02T15:38:53.944Z,7.97
2019-02-02T15:41:22.173Z,10.30
2019-02-02T15:43:50.182Z,8.93
2019-02-02T15:46:18.020Z,8.13
2019-02-02T15:48:45.906Z,12.00
2019-02-02T15:51:13.882Z,11.20
2019-02-02T15:53:41.778Z,11.20
2019-02-02T15:56:10.818Z,9.07
2019-02-02T15:58:38.788Z,8.87
2019-02-02T16:01:06.879Z,10.73
2019-02-02T16:03:49.603Z,9.90
2019-02-02T16:06:14.788Z,13.13
2019-02-02T16:08:42.863Z,13.07
2019-02-02T16:11:10.809Z,14.97
2019-02-02T16:13:38.594Z,14.67
2019-02-02T16:16:06.599Z,16.17
2019-02-02T16:18:34.568Z,13.40
2019-02-02T16:21:02.637Z,13.17
2019-02-02T16:23:30.530Z,13.90
2019-02-02T16:25:58.623Z,14.30
2019-02-02T16:28:26.553Z,19.27
2019-02-02T16:30:54.442Z,22.00
2019-02-02T16:33:22.642Z,18.40
2019-02-02T16:35:50.705Z,29.13
2019-02-02T16:38:18.763Z,19.57
2019-02-02T16:40:46.656Z,18.83
2019-02-02T16:43:15.767Z,21.30
2019-02-02T16:45:43.683Z,21.33
2019-02-02T16:48:11.712Z,52.30
2019-02-02T16:50:40.197Z,85.03
2019-02-02T16:53:08.199Z,24.57
2019-02-02T16:55:36.272Z,27.27
2019-02-02T16:58:05.845Z,23.17
2019-02-02T17:00:34.353Z,29.17
2019-02-02T17:03:02.537Z,27.23
2019-02-02T17:05:39.092Z,27.93
2019-02-02T17:08:07.156Z,27.20
2019-02-02T17:10:36.422Z,31.23
2019-02-02T17:13:05.641Z,29.60
2019-02-02T17:15:34.195Z,33.37
2019-02-02T17:18:02.095Z,38.67
2019-02-02T17:20:37.840Z,46.37
2019-02-02T17:23:05.826Z,43.50
2019-02-02T17:25:33.978Z,44.50
2019-02-02T17:28:02.076Z,47.20
2019-02-02T17:30:30.032Z,47.90
2019-02-02T17:33:00.252Z,52.07
2019-02-02T17:35:28.216Z,50.53
2019-02-02T17:37:56.077Z,50.23
2019-02-02T17:40:25.682Z,54.03
2019-02-02T17:42:53.859Z,55.30
2019-02-02T17:45:21.964Z,53.73
2019-02-02T17:47:50.469Z,55.53
2019-02-02T17:50:19.835Z,57.27
2019-02-02T17:52:48.886Z,60.67
2019-02-02T17:55:17.620Z,60.00
2019-02-02T17:57:45.769Z,56.77
2019-02-02T18:00:16.077Z,59.73
2019-02-02T18:02:44.010Z,61.73
2019-02-02T18:05:12.612Z,60.87
2019-02-02T18:07:40.413Z,58.50
2019-02-02T18:10:10.759Z,62.20
2019-02-02T18:12:38.623Z,54.77
2019-02-02T18:15:08.448Z,61.93
2019-02-02T18:17:36.311Z,59.60
2019-02-02T18:20:06.953Z,54.60
2019-02-02T18:22:34.934Z,59.30
2019-02-02T18:25:03.481Z,56.30
2019-02-02T18:27:32.208Z,46.23
2019-02-02T18:30:00.383Z,55.00
2019-02-02T18:32:28.310Z,75.00
2019-02-02T18:34:56.390Z,71.73
2019-02-02T18:37:24.651Z,87.60
2019-02-02T18:39:52.598Z,77.70
2019-02-02T18:42:21.310Z,66.93
2019-02-02T18:44:49.869Z,74.57
2019-02-02T18:47:18.717Z,62.97
2019-02-02T18:49:46.758Z,74.57
2019-02-02T18:52:16.459Z,79.10
2019-02-02T18:54:44.456Z,73.00
2019-02-02T18:57:12.424Z,72.40
2019-02-02T18:59:40.203Z,74.70
2019-02-02T19:02:08.201Z,112.47
2019-02-02T19:04:36.283Z,72.90
2019-02-02T19:07:04.303Z,69.00
2019-02-02T19:09:32.431Z,56.57
2019-02-02T19:12:00.746Z,57.63
2019-02-02T19:14:28.733Z,50.83
2019-02-02T19:17:01.224Z,50.20
2019-02-02T19:19:26.416Z,53.30
2019-02-02T19:21:54.402Z,54.27
2019-02-02T19:24:22.238Z,53.73
2019-02-02T19:26:50.029Z,53.67
2019-02-02T19:29:18.045Z,55.83
2019-02-02T19:31:46.380Z,56.40
2019-02-02T19:34:18.181Z,66.67
2019-02-02T19:36:45.544Z,140.57
2019-02-02T19:39:13.518Z,121.37
2019-02-02T19:41:41.866Z,231.53
2019-02-02T19:44:15.633Z,92.13
2019-02-02T19:46:43.605Z,76.77
2019-02-02T19:49:12.051Z,68.53
2019-02-02T19:51:39.918Z,77.93
2019-02-02T19:54:07.886Z,64.60
2019-02-02T19:56:35.885Z,58.13
2019-02-02T19:59:04.069Z,58.43
2019-02-02T20:01:31.996Z,65.67
2019-02-02T20:04:00.072Z,66.67
2019-02-02T20:06:28.209Z,61.60
2019-02-02T20:08:56.113Z,61.50
2019-02-02T20:11:24.079Z,58.03
2019-02-02T20:13:52.002Z,62.80
2019-02-02T20:16:19.887Z,68.70
2019-02-02T20:18:47.855Z,72.07
2019-02-02T20:21:16.054Z,69.43
2019-02-02T20:23:44.215Z,63.87
2019-02-02T20:26:12.287Z,64.20
2019-02-02T20:28:42.382Z,64.57
2019-02-02T20:31:10.264Z,65.67
2019-02-02T20:33:38.200Z,62.50
2019-02-02T20:36:06.456Z,52.37
2019-02-02T20:38:34.751Z,54.83
2019-02-02T20:41:02.780Z,58.43
2019-02-02T20:43:30.982Z,54.67
2019-02-02T20:46:07.881Z,57.60
2019-02-02T20:48:35.879Z,60.27
2019-02-02T20:51:04.111Z,57.20
2019-02-02T20:53:32.330Z,56.87
2019-02-02T20:56:00.572Z,54.47
2019-02-02T20:58:28.423Z,61.07
2019-02-02T21:00:56.458Z,62.30
2019-02-02T21:03:24.499Z,64.40
2019-02-02T21:05:52.853Z,62.40
2019-02-02T21:08:21.066Z,60.90
2019-02-02T21:10:49.143Z,62.63
2019-02-02T21:13:17.017Z,68.17
2019-02-02T21:15:45.035Z,137.77
2019-02-02T21:18:13.347Z,122.53
2019-02-02T21:20:42.424Z,124.90
2019-02-02T21:23:10.634Z,111.27
2019-02-02T21:25:38.971Z,121.50
2019-02-02T21:28:07.396Z,120.80
2019-02-02T21:30:35.780Z,139.20
2019-02-02T21:33:04.871Z,157.73
2019-02-02T21:35:32.795Z,137.32
2019-02-02T21:38:00.866Z,161.17
2019-02-02T21:40:30.661Z,205.33
2019-02-02T21:42:58.574Z,225.17
2019-02-02T21:45:26.498Z,274.27
2019-02-02T21:48:03.367Z,210.57
2019-02-02T21:50:31.326Z,186.80
2019-02-02T21:52:59.319Z,209.23
2019-02-02T21:55:28.920Z,178.03
2019-02-02T21:57:56.909Z,296.10
2019-02-02T22:00:30.589Z,231.50
2019-02-02T22:02:58.614Z,198.97
2019-02-02T22:05:26.510Z,205.73
2019-02-02T22:07:54.563Z,226.90
2019-02-02T22:10:22.531Z,194.43
2019-02-02T22:12:52.768Z,181.73
2019-02-02T22:15:21.836Z,160.87
2019-02-02T22:17:49.926Z,135.47
2019-02-02T22:20:18.553Z,120.90
2019-02-02T22:22:47.437Z,112.33
2019-02-02T22:25:18.314Z,98.40
2019-02-02T22:27:46.300Z,112.40
2019-02-02T22:30:16.847Z,144.47
2019-02-02T22:32:44.861Z,107.37
2019-02-02T22:35:12.865Z,100.67
2019-02-02T22:37:41.253Z,86.83
2019-02-02T22:40:12.127Z,88.53
2019-02-02T22:42:40.253Z,95.25
2019-02-02T22:45:11.610Z,86.45
2019-02-02T22:47:39.680Z,82.30
2019-02-02T22:50:10.970Z,72.23
2019-02-02T22:52:39.563Z,73.77
2019-02-02T22:55:08.547Z,66.03
2019-02-02T22:57:36.852Z,66.33
2019-02-02T23:00:24.003Z,67.20
2019-02-02T23:02:52.025Z,67.93
2019-02-02T23:05:52.451Z,72.32
2019-02-02T23:08:35.680Z,80.53
2019-02-02T23:11:25.884Z,73.27
2019-02-02T23:14:25.665Z,64.13
2019-02-02T23:16:53.667Z,64.77
2019-02-02T23:19:21.677Z,59.53
2019-02-02T23:21:49.572Z,52.40
2019-02-02T23:24:17.562Z,55.27
2019-02-02T23:26:45.377Z,54.73
2019-02-02T23:29:13.358Z,55.53
2019-02-02T23:31:41.374Z,50.83
2019-02-02T23:34:10.659Z,57.60
2019-02-02T23:36:50.534Z,56.23
2019-02-02T23:39:09.107Z,55.92
2019-02-02T23:41:38.082Z,52.60
2019-02-02T23:44:05.928Z,51.67
2019-02-02T23:46:34.003Z,50.63
2019-02-02T23:49:02.030Z,55.80
2019-02-02T23:51:29.910Z,53.97
2019-02-02T23:53:57.772Z,58.60
2019-02-02T23:56:27.800Z,56.37
2019-02-02T23:58:55.763Z,57.20
